This is the latest recevied weather packets stored in our database for station/object KG7FOQ-13. If no packets are shown the sender has not sent any weather packets the latest 10 day(s).
| Time | Temp. | Humidity | Pressure | Rain* | Wind** | Luminosity | Snow |
|---|---|---|---|---|---|---|---|
| 1777433301 | 7.78° C | 57% | 1019 hPa | 0 mm | - | - | - |
| 1777433001 | 8.33° C | 54% | 1018.9 hPa | 0 mm | - | - | - |
| 1777432700 | 8.89° C | 54% | 1019 hPa | 0 mm | - | - | - |
| 1777432400 | 9.44° C | 53% | 1018.8 hPa | 0 mm | - | - | - |
| 1777432099 | 9.44° C | 55% | 1018.8 hPa | 0 mm | - | - | - |
| 1777431833 | 10° C | 52% | 1018.7 hPa | 0 mm | - | - | - |
| 1777431799 | 10° C | 52% | 1018.7 hPa | 0 mm | - | - | - |
| 1777431498 | 11.11° C | 50% | 1018.6 hPa | 0 mm | - | - | - |
| 1777431198 | 11.67° C | 46% | 1018.6 hPa | 0 mm | - | - | - |
| 1777430897 | 12.22° C | 42% | 1018.5 hPa | 0 mm | - | - | - |
| 1777430597 | 12.78° C | 39% | 1018.5 hPa | 0 mm | - | - | - |
| 1777430296 | 12.78° C | 38% | 1018.5 hPa | 0 mm | - | - | - |
| 1777429996 | 12.78° C | 38% | 1018.4 hPa | 0 mm | - | - | - |
| 1777429695 | 12.78° C | 38% | 1018.2 hPa | 0 mm | - | - | - |
| 1777429395 | 12.78° C | 38% | 1018.2 hPa | 0 mm | - | - | - |
| 1777429094 | 13.33° C | 38% | 1018.2 hPa | 0 mm | - | - | - |
| 1777428794 | 13.33° C | 38% | 1018.2 hPa | 0 mm | - | - | - |
| 1777428493 | 13.89° C | 37% | 1018.2 hPa | 0 mm | - | - | - |
| 1777428194 | 13.89° C | 36% | 1018.1 hPa | 0 mm | - | - | - |
| 1777427892 | 13.89° C | 36% | 1018.2 hPa | 0 mm | - | - | - |
| 1777427591 | 13.89° C | 35% | 1018.1 hPa | 0 mm | - | - | - |
| 1777427291 | 13.89° C | 34% | 1018.1 hPa | 0 mm | - | - | - |
| 1777426990 | 13.89° C | 33% | 1018.2 hPa | 0 mm | - | - | - |
| 1777426689 | 13.89° C | 33% | 1018.2 hPa | 0 mm | - | - | - |
| 1777426388 | 13.89° C | 31% | 1018.1 hPa | 0 mm | - | - | - |
* Rain latest hour (hover to see other rain measurements)
** Current wind speed in m/s (hover to see current wind gust speed)